Coamo, PR (00769)

5:32 PM AST on February 09, 2016 (GMT -0400)
Manejo de Emergencias Coamo | | Change Station
CLOSE
Current Station
Personal Weather Station
Location: Coamo, PR
Elevation: 417 ft
Nearby Weather Stations

Elev 417 ft 18.08 °N, 66.36 °W | Updated 29 minutes ago

Mostly Cloudy
Mostly Cloudy
82.1 °F
Feels Like 87 °F
N
2.0
Wind Variable Wind from SE
Gusts 8.0 mph

Today
High -- | Low -- °F
--% Chance of Precip.
Yesterday
High -- | Low -- °F
Precip. -- in
Pressure 30.01 in
Visibility 10.0 miles
Clouds Scattered Clouds 2000 ft
Mostly Cloudy 5000 ft
Heat Index 87 °F
Dew Point 71 °F
Humidity 70%
Rainfall Not available.
Snow Depth Not available.
6:55 AM 6:23 PM
New Moon, 2% visible
METAR TJPS 092050Z 17010G15KT 10SM SCT020 BKN050 29/22 A3001
Pressure 30.01 in
Visibility 10.0 miles
Clouds Scattered Clouds 2000 ft
Mostly Cloudy 5000 ft
Heat Index 87 °F
Dew Point 71 °F
Humidity 70%
Rainfall Not available.
Snow Depth Not available.
6:55 AM 6:23 PM
New Moon, 2% visible
METAR TJPS 092050Z 17010G15KT 10SM SCT020 BKN050 29/22 A3001

10-Day Weather Forecast

Almanac

Astronomy

Feb. 09, 2016 Rise Set
Actual Time
Civil Twilight
Nautical Twilight
Astronomical Twilight
Moon
Length of Visible Light
Length of Day
Tomorrow will be .
, % of the Moon is Illuminated

Today's Extremes

State Highs State Lows

Community

WunderPhotos

Upload Photos

1,891,708 photos uploaded!

WunderBlog® & News

Nearby

Air Quality

  Air Quality AQ Index Pollutant
Not available.

Snow Depth

Station Depth Elevation

Earthquake Activity

City Distance Mag. Time & Date
Minimum magnitude displayed is 2.5.

Coastal Water Temperatures

Place Temperature

Stations

Nearby Weather Stations

Station Location Temp. Windchill Dew Point Humidity Wind Precip. Elev Updated Type
                   

Watches & Warnings

There are currently no watches in effect.